Time;durP1;ratioP1;P1;durP2;ratioP2;P2;SDS_P1;SDS_P2;PMS_P1;PMS_P2;Temp;Humidity;BMP_temperature;BMP_pressure;BME280_temperature;BME280_humidity;BME280_pressure;Samples;Min_cycle;Max_cycle;Signal;HPM_P1;HPM_P2
2022/11/21 00:00:48;;;;;;;8.65;6.47;;;;;;;11.55;80.31;93369.00;4160512;28;20053;-53
2022/11/21 00:02:50;;;;;;;;;;;;;;;11.63;80.34;93369.63;4160772;28;20477;-55
2022/11/21 00:04:51;;;;;;;7.28;5.88;;;;;;;11.70;80.30;93364.41;4156525;28;20011;-54
2022/11/21 00:06:56;;;;;;;15.30;13.75;;;;;;;11.74;79.90;93359.56;4153078;28;20136;-54
2022/11/21 00:08:58;;;;;;;20.83;18.92;;;;;;;11.76;79.78;93353.13;4168548;28;20198;-56
2022/11/21 00:11:00;;;;;;;12.43;9.07;;;;;;;11.80;79.76;93340.41;4169440;28;20050;-56
2022/11/21 00:13:02;;;;;;;15.52;12.80;;;;;;;11.86;79.84;93339.63;4170025;28;20091;-50
2022/11/21 00:15:04;;;;;;;11.98;10.02;;;;;;;11.91;79.74;93346.94;4176036;28;20091;-54
2022/11/21 00:17:06;;;;;;;7.18;5.82;;;;;;;11.95;79.17;93333.19;4162813;28;20052;-55
2022/11/21 00:19:08;;;;;;;10.95;6.80;;;;;;;11.96;78.67;93326.13;4173195;28;20098;-56
2022/11/21 00:21:14;;;;;;;8.52;5.15;;;;;;;11.96;78.85;93331.38;4160255;28;20056;-55
2022/11/21 00:23:16;;;;;;;7.95;5.32;;;;;;;11.98;78.81;93337.22;4158580;28;20053;-54
2022/11/21 00:25:18;;;;;;;8.63;5.70;;;;;;;11.98;78.64;93324.94;4160526;28;20535;-55
2022/11/21 00:27:19;;;;;;;13.13;9.75;;;;;;;11.90;78.65;93316.47;4167720;28;20112;-54
2022/11/21 00:29:21;;;;;;;6.30;5.40;;;;;;;11.85;79.10;93322.25;4151385;28;20081;-55
2022/11/21 00:31:24;;;;;;;6.80;4.78;;;;;;;11.78;79.48;93318.81;4159475;28;20073;-57
2022/11/21 00:33:25;;;;;;;4.95;4.03;;;;;;;11.50;79.58;93309.28;4157696;28;20705;-56
2022/11/21 00:35:33;;;;;;;7.35;5.32;;;;;;;11.22;80.84;93327.75;4151482;28;20091;-56
2022/11/21 00:37:34;;;;;;;5.75;4.43;;;;;;;11.29;81.53;93325.97;4163462;28;20046;-55
2022/11/21 00:39:36;;;;;;;7.00;5.35;;;;;;;11.39;81.52;93299.38;4177966;28;20123;-52
2022/11/21 00:41:38;;;;;;;8.07;5.75;;;;;;;11.50;81.17;93298.78;4170799;28;20156;-56
2022/11/21 00:43:39;;;;;;;6.80;4.95;;;;;;;11.53;80.31;93297.59;4162632;28;20132;-51
2022/11/21 00:45:44;;;;;;;7.40;5.38;;;;;;;11.31;80.72;93318.72;4162545;28;20373;-50
2022/11/21 00:47:45;;;;;;;6.90;5.65;;;;;;;10.96;81.92;93299.66;4168221;28;20421;-54
2022/11/21 00:49:47;;;;;;;10.82;5.82;;;;;;;10.99;82.76;93315.78;4178897;28;20103;-56
2022/11/21 00:51:49;;;;;;;7.80;5.47;;;;;;;11.09;83.00;93299.69;4179036;28;20468;-52
2022/11/21 00:53:50;;;;;;;7.05;5.40;;;;;;;11.19;82.38;93287.03;4176745;28;20096;-61
2022/11/21 00:55:52;;;;;;;7.55;5.75;;;;;;;11.21;81.78;93271.91;4165972;28;20077;-52
2022/11/21 00:57:53;;;;;;;9.27;6.25;;;;;;;11.28;81.61;93274.56;4155884;28;20080;-55
2022/11/21 00:59:55;;;;;;;8.80;6.88;;;;;;;11.32;81.52;93283.63;4161887;28;20057;-53
2022/11/21 01:01:57;;;;;;;8.23;5.82;;;;;;;11.39;81.41;93288.91;4149458;28;20073;-54
2022/11/21 01:03:58;;;;;;;7.78;5.90;;;;;;;11.38;80.78;93282.84;4155405;28;20055;-52
2022/11/21 01:06:11;;;;;;;8.32;5.97;;;;;;;11.28;80.70;93288.47;4175259;28;20144;-50
2022/11/21 01:08:13;;;;;;;6.65;5.32;;;;;;;11.32;81.13;93267.91;4171952;28;20049;-55
2022/11/21 01:10:14;;;;;;;8.90;5.63;;;;;;;11.04;80.83;93247.88;4173135;28;20488;-53
2022/11/21 01:12:16;;;;;;;8.18;5.53;;;;;;;11.05;81.60;93283.53;4161953;28;20049;-56
2022/11/21 01:14:17;;;;;;;8.10;4.78;;;;;;;10.58;82.24;93252.94;4171158;28;20107;-51
2022/11/21 01:16:22;;;;;;;6.63;4.75;;;;;;;10.35;84.17;93271.56;4178827;28;20107;-51
2022/11/21 01:18:34;;;;;;;6.30;4.57;;;;;;;10.51;84.23;93268.59;4148447;28;20715;-55
2022/11/21 01:20:39;;;;;;;8.80;4.72;;;;;;;10.71;84.26;93281.81;4162242;28;20053;-54
2022/11/21 01:22:41;;;;;;;8.60;5.25;;;;;;;10.79;83.20;93268.53;4160467;28;20839;-53
2022/11/21 01:24:42;;;;;;;7.13;5.82;;;;;;;10.75;82.92;93277.78;4160039;28;20172;-55
2022/11/21 01:26:44;;;;;;;8.05;6.38;;;;;;;10.57;83.81;93285.38;4151782;28;20049;-52
2022/11/21 01:28:46;;;;;;;7.78;6.00;;;;;;;10.27;85.55;93284.75;4154403;28;20559;-55
2022/11/21 01:30:48;;;;;;;10.20;7.50;;;;;;;10.13;85.34;93297.75;4162167;28;20099;-51
2022/11/21 01:32:49;;;;;;;11.48;7.70;;;;;;;10.11;86.38;93289.28;4162888;28;20137;-53
2022/11/21 01:34:57;;;;;;;9.10;7.32;;;;;;;10.08;87.05;93283.63;4166002;28;20108;-52
2022/11/21 01:37:00;;;;;;;11.23;7.75;;;;;;;10.07;86.73;93281.97;4153431;28;20402;-54
2022/11/21 01:39:04;;;;;;;12.23;7.95;;;;;;;9.99;86.46;93272.50;4160606;28;20057;-50
2022/11/21 01:41:06;;;;;;;11.55;8.57;;;;;;;9.89;87.97;93264.16;4161732;28;20081;-53
2022/11/21 01:43:14;;;;;;;11.23;8.20;;;;;;;9.99;87.31;93241.09;4161781;28;20057;-53
2022/11/21 01:45:47;;;;;;;8.60;7.45;;;;;;;10.21;87.08;93262.78;4163155;28;20109;-59
2022/11/21 01:47:48;;;;;;;12.68;7.45;;;;;;;10.40;86.34;93262.09;4158244;28;20049;-52
2022/11/21 01:49:51;;;;;;;9.57;6.55;;;;;;;10.38;84.29;93261.50;4165513;28;20053;-50
2022/11/21 01:52:00;;;;;;;13.23;8.82;;;;;;;10.27;85.01;93259.38;4177729;28;20056;-54
2022/11/21 01:54:08;;;;;;;10.85;8.43;;;;;;;10.31;85.19;93255.41;4174754;28;20053;-50
2022/11/21 01:56:10;;;;;;;9.70;8.00;;;;;;;10.40;85.23;93272.56;4174250;28;20123;-51
2022/11/21 01:58:11;;;;;;;9.98;7.80;;;;;;;10.51;84.69;93250.28;4160163;28;20061;-51
2022/11/21 02:00:20;;;;;;;8.10;5.93;;;;;;;10.45;83.74;93248.44;4143920;28;20053;-50
2022/11/21 02:02:27;;;;;;;8.88;5.60;;;;;;;10.58;83.18;93251.13;4150039;28;20076;-54
2022/11/21 02:04:30;;;;;;;8.77;5.38;;;;;;;10.74;83.05;93260.47;4161324;28;20493;-51
2022/11/21 02:06:33;;;;;;;7.22;5.50;;;;;;;10.62;82.29;93256.78;4171883;28;20458;-52
2022/11/21 02:08:36;;;;;;;8.77;3.80;;;;;;;10.78;80.82;93259.06;4163952;28;20566;-52
2022/11/21 02:10:39;;;;;;;6.28;4.75;;;;;;;10.90;81.31;93261.94;4172857;28;20041;-53
2022/11/21 02:12:49;;;;;;;9.35;6.55;;;;;;;10.59;82.86;93251.94;4150869;28;20050;-54
2022/11/21 02:14:51;;;;;;;13.50;5.95;;;;;;;10.50;83.31;93227.72;4158308;28;20499;-50
2022/11/21 02:16:56;;;;;;;9.45;6.05;;;;;;;10.57;83.25;93249.50;4163636;28;20125;-54
2022/11/21 02:18:58;;;;;;;9.27;5.97;;;;;;;10.72;83.20;93249.38;4169340;28;20049;-55
2022/11/21 02:21:14;;;;;;;8.43;6.80;;;;;;;10.73;82.03;93235.25;4172659;28;20048;-55
2022/11/21 02:24:02;;;;;;;9.85;6.18;;;;;;;10.75;82.50;93250.78;4143688;28;20119;-55
2022/11/21 02:26:03;;;;;;;8.55;6.40;;;;;;;10.95;82.59;93250.84;4155629;28;20718;-56
2022/11/21 02:28:07;;;;;;;8.32;5.93;;;;;;;11.08;82.33;93250.91;4158960;28;20045;-53
2022/11/21 02:30:09;;;;;;;7.57;5.85;;;;;;;11.22;81.67;93241.25;4145193;28;20085;-51
2022/11/21 02:32:23;;;;;;;7.25;5.95;;;;;;;11.21;80.79;93244.91;4140623;28;20694;-54
2022/11/21 02:34:24;;;;;;;8.15;5.70;;;;;;;11.18;81.09;93246.09;4161566;28;20545;-54
2022/11/21 02:36:36;;;;;;;8.55;5.13;;;;;;;10.97;81.38;93236.56;4158644;28;20042;-57
2022/11/21 02:38:37;;;;;;;10.65;5.43;;;;;;;10.99;81.83;93257.31;4154945;28;20092;-53
2022/11/21 02:40:43;;;;;;;5.95;4.78;;;;;;;10.80;81.57;93243.16;4157699;28;20200;-51
2022/11/21 02:42:46;;;;;;;7.35;4.97;;;;;;;10.74;82.34;93236.09;4142150;28;20049;-54
2022/11/21 02:45:00;;;;;;;8.98;5.35;;;;;;;10.71;81.44;93232.06;4160283;28;20056;-54
2022/11/21 02:47:02;;;;;;;9.07;5.50;;;;;;;10.77;82.20;93244.34;4144005;28;20057;-50
2022/11/21 02:49:06;;;;;;;9.35;4.93;;;;;;;10.94;82.02;93238.78;4161725;28;20285;-53
2022/11/21 02:51:08;;;;;;;8.73;5.68;;;;;;;11.08;81.75;93232.56;4157720;28;20103;-53
2022/11/21 02:53:13;;;;;;;6.35;4.65;;;;;;;10.93;80.92;93211.78;4161890;28;20088;-54
2022/11/21 02:55:14;;;;;;;8.63;4.38;;;;;;;10.92;80.55;93214.59;4157374;28;20049;-53
2022/11/21 02:57:16;;;;;;;5.47;3.95;;;;;;;11.01;80.53;93232.56;4159614;28;20131;-52
2022/11/21 02:59:18;;;;;;;7.40;4.07;;;;;;;10.82;80.68;93180.91;4176601;28;20060;-52
2022/11/21 03:01:19;;;;;;;4.82;3.63;;;;;;;10.69;81.54;93173.81;4165289;28;20052;-54
2022/11/21 03:03:21;;;;;;;7.57;3.70;;;;;;;10.81;81.37;93179.28;4160278;28;20500;-52
2022/11/21 03:05:23;;;;;;;9.90;3.60;;;;;;;10.98;81.36;93183.16;4161707;28;20060;-55
2022/11/21 03:07:25;;;;;;;7.93;3.25;;;;;;;11.06;79.43;93154.16;4168801;28;20049;-55
2022/11/21 03:09:26;;;;;;;5.25;3.08;;;;;;;11.18;79.61;93203.34;4168918;28;20057;-55
2022/11/21 03:11:28;;;;;;;4.88;2.92;;;;;;;11.30;78.95;93204.38;4165996;28;20122;-54
2022/11/21 03:13:36;;;;;;;5.32;3.17;;;;;;;11.36;76.79;93163.47;4175007;28;20081;-54
2022/11/21 03:15:37;;;;;;;6.95;2.55;;;;;;;11.45;76.38;93173.53;4169703;28;20115;-50
2022/11/21 03:17:40;;;;;;;4.30;2.60;;;;;;;11.60;76.90;93201.38;4169931;28;20076;-52
2022/11/21 03:19:41;;;;;;;5.88;2.58;;;;;;;11.71;76.69;93190.28;4174649;28;20052;-53
2022/11/21 03:21:43;;;;;;;4.38;2.53;;;;;;;11.83;76.38;93186.03;4147364;28;20037;-52
2022/11/21 03:23:45;;;;;;;3.35;2.53;;;;;;;11.85;75.93;93184.00;4164781;28;20131;-54
2022/11/21 03:25:46;;;;;;;5.82;2.42;;;;;;;11.77;75.15;93202.59;4175811;28;20041;-51
2022/11/21 03:27:52;;;;;;;4.75;2.45;;;;;;;11.77;75.53;93213.06;4162283;28;20054;-55
2022/11/21 03:29:54;;;;;;;5.82;2.30;;;;;;;11.76;74.91;93187.03;4176101;28;20076;-52
2022/11/21 03:31:55;;;;;;;8.93;3.70;;;;;;;11.79;75.83;93192.69;4176039;28;20084;-51
2022/11/21 03:33:57;;;;;;;8.75;3.92;;;;;;;11.91;76.08;93192.09;4175438;28;20110;-54
2022/11/21 03:35:58;;;;;;;8.68;3.22;;;;;;;12.02;76.18;93202.81;4160711;28;20107;-53
2022/11/21 03:38:00;;;;;;;6.38;2.88;;;;;;;12.04;75.36;93182.38;4158917;28;20057;-51
2022/11/21 03:40:02;;;;;;;5.60;2.85;;;;;;;12.09;75.32;93213.28;4151397;28;20054;-54
2022/11/21 03:42:04;;;;;;;5.40;2.42;;;;;;;12.06;75.15;93190.84;4168991;28;20523;-54
2022/11/21 03:44:08;;;;;;;5.95;2.05;;;;;;;12.11;74.76;93171.06;4157321;28;20054;-54
2022/11/21 03:46:10;;;;;;;5.80;2.60;;;;;;;12.12;74.58;93193.69;4157239;28;20084;-53
2022/11/21 03:48:11;;;;;;;6.28;2.92;;;;;;;12.14;74.42;93183.78;4176364;28;20061;-50
2022/11/21 03:50:17;;;;;;;10.15;2.78;;;;;;;12.14;74.64;93196.91;4162852;28;20088;-50
2022/11/21 03:52:18;;;;;;;6.75;2.13;;;;;;;11.87;74.32;93182.00;4171476;28;20077;-55
2022/11/21 03:54:20;;;;;;;6.00;2.20;;;;;;;11.77;75.22;93173.72;4160016;28;20533;-47
2022/11/21 03:56:22;;;;;;;3.92;1.30;;;;;;;11.96;70.68;93173.91;4148952;28;20097;-50
2022/11/21 03:58:23;;;;;;;6.03;1.40;;;;;;;12.16;69.79;93158.94;4170409;28;20351;-52
2022/11/21 04:00:25;;;;;;;4.70;1.30;;;;;;;12.32;68.42;93162.13;4165310;28;20056;-52
2022/11/21 04:02:27;;;;;;;4.93;1.50;;;;;;;12.46;69.27;93159.25;4164655;28;20049;-48
2022/11/21 04:04:29;;;;;;;3.78;1.42;;;;;;;12.56;66.95;93164.06;4176437;28;20076;-53
2022/11/21 04:06:31;;;;;;;5.18;1.58;;;;;;;12.68;67.91;93161.56;4164427;28;20375;-52
2022/11/21 04:08:32;;;;;;;6.95;1.42;;;;;;;12.76;67.62;93145.56;4158518;28;20045;-52
2022/11/21 04:10:34;;;;;;;3.95;1.40;;;;;;;12.81;65.92;93145.75;4164479;28;20525;-52
2022/11/21 04:12:36;;;;;;;5.13;1.63;;;;;;;12.84;66.50;93155.84;4163210;28;20508;-53
2022/11/21 04:14:37;;;;;;;3.78;1.77;;;;;;;12.86;67.63;93142.47;4175258;28;20141;-51
2022/11/21 04:16:39;;;;;;;5.60;1.33;;;;;;;12.86;66.04;93142.47;4163706;28;20188;-54
2022/11/21 04:18:41;;;;;;;7.25;1.42;;;;;;;12.93;65.22;93143.25;4162640;28;20259;-54
2022/11/21 04:20:43;;;;;;;5.38;1.38;;;;;;;13.05;63.87;93131.03;4163943;28;20168;-53
2022/11/21 04:22:44;;;;;;;8.65;1.10;;;;;;;13.07;63.47;93144.78;4148823;28;20050;-50
2022/11/21 04:24:46;;;;;;;4.30;0.98;;;;;;;13.13;63.46;93142.34;4162208;28;20521;-56
2022/11/21 04:26:48;;;;;;;6.00;1.20;;;;;;;13.25;63.86;93151.13;4162950;28;20057;-55
2022/11/21 04:28:49;;;;;;;7.57;1.25;;;;;;;13.31;63.52;93142.41;4157958;28;20059;-51
2022/11/21 04:30:51;;;;;;;4.88;1.25;;;;;;;13.37;62.00;93154.72;4159270;28;20095;-53
2022/11/21 04:32:55;;;;;;;4.32;1.27;;;;;;;13.37;63.16;93154.72;4156076;28;20050;-54
2022/11/21 04:34:57;;;;;;;5.20;1.63;;;;;;;13.41;62.78;93171.69;4162817;28;20119;-50
2022/11/21 04:36:59;;;;;;;3.67;1.05;;;;;;;13.42;62.10;93157.53;4162619;28;20061;-52
2022/11/21 04:39:01;;;;;;;3.60;1.10;;;;;;;13.45;62.68;93161.56;4161099;28;20103;-49
2022/11/21 04:41:03;;;;;;;5.72;1.50;;;;;;;13.43;62.29;93168.84;4179186;28;20041;-52
2022/11/21 04:43:05;;;;;;;6.85;1.65;;;;;;;13.45;61.85;93146.56;4178703;28;20056;-53
2022/11/21 04:45:07;;;;;;;4.70;1.73;;;;;;;13.54;61.54;93159.47;4177183;28;20048;-53
2022/11/21 04:47:09;;;;;;;6.68;1.67;;;;;;;13.55;61.48;93166.31;4155748;28;20119;-50
2022/11/21 04:49:11;;;;;;;3.70;1.13;;;;;;;13.54;61.56;93154.19;4167283;28;20757;-52
2022/11/21 04:51:13;;;;;;;7.35;1.92;;;;;;;13.59;61.90;93168.31;4178985;28;20049;-52
2022/11/21 04:53:14;;;;;;;2.90;2.20;;;;;;;13.62;61.98;93175.00;4177299;28;20116;-54
2022/11/21 04:55:17;;;;;;;4.65;1.77;;;;;;;13.62;60.21;93169.72;4176297;28;20117;-51
2022/11/21 04:57:18;;;;;;;5.13;1.20;;;;;;;13.58;59.73;93165.91;4162256;28;20103;-54
2022/11/21 04:59:20;;;;;;;3.70;1.50;;;;;;;13.54;61.37;93165.53;4171391;28;20084;-52
2022/11/21 05:01:21;;;;;;;4.30;1.48;;;;;;;13.54;59.92;93175.25;4166060;28;20050;-51
2022/11/21 05:03:23;;;;;;;3.95;1.85;;;;;;;13.47;62.29;93180.56;4161567;28;20095;-53
2022/11/21 05:05:25;;;;;;;6.03;2.00;;;;;;;12.86;66.99;93206.38;4172860;28;20413;-55
2022/11/21 05:07:27;;;;;;;4.40;1.67;;;;;;;12.60;65.91;93186.25;4167823;28;20053;-53
2022/11/21 05:09:28;;;;;;;5.38;1.60;;;;;;;12.51;67.33;93216.41;4170753;28;20057;-51
2022/11/21 05:13:52;;;;;;;4.30;1.35;;;;;;;12.13;70.71;93184.78;4156808;28;20061;-54
2022/11/21 05:15:57;;;;;;;5.88;1.33;;;;;;;11.68;71.79;93238.72;4171469;28;20072;-53
2022/11/21 05:17:59;;;;;;;5.18;1.77;;;;;;;11.72;72.08;93240.91;4174612;28;20159;-52
2022/11/21 05:20:00;;;;;;;4.72;1.63;;;;;;;11.50;71.27;93235.06;4160292;28;20096;-53
2022/11/21 05:22:02;;;;;;;7.25;1.88;;;;;;;11.66;71.67;93242.53;4160581;28;20100;-52
2022/11/21 05:24:04;;;;;;;5.18;1.75;;;;;;;11.74;71.31;93246.78;4164868;28;20056;-55
2022/11/21 05:26:06;;;;;;;4.40;1.60;;;;;;;11.48;70.27;93225.56;4152492;28;20243;-52
2022/11/21 05:28:08;;;;;;;4.07;1.77;;;;;;;11.08;72.55;93232.56;4163389;28;20053;-53
2022/11/21 05:30:10;;;;;;;3.97;1.70;;;;;;;10.86;73.25;93251.06;4167328;28;20229;-55
2022/11/21 05:32:12;;;;;;;4.97;1.73;;;;;;;10.96;73.50;93265.59;4150127;28;20042;-54
2022/11/21 05:34:14;;;;;;;4.25;1.73;;;;;;;10.93;74.03;93247.66;4165389;28;20084;-54
2022/11/21 05:36:15;;;;;;;3.95;1.80;;;;;;;10.66;73.33;93271.09;4162014;28;20123;-53
2022/11/21 05:38:17;;;;;;;4.68;1.42;;;;;;;10.12;75.05;93259.50;4154563;28;20049;-53
2022/11/21 05:40:19;;;;;;;3.17;1.83;;;;;;;9.98;74.71;93263.00;4161741;28;20054;-54
2022/11/21 05:43:44;;;;;;;4.75;1.25;;;;;;;9.55;76.17;93270.91;4177755;28;20213;-53
2022/11/21 05:44:42;;;;;;;4.90;1.60;;;;;;;9.30;76.52;93280.94;4177947;28;20045;-50
2022/11/21 05:46:44;;;;;;;3.28;1.63;;;;;;;9.32;77.06;93271.94;4168354;28;20045;-50
2022/11/21 05:49:02;;;;;;;5.00;1.70;;;;;;;9.11;76.27;93292.81;4160288;28;20086;-54
2022/11/21 05:51:04;;;;;;;3.75;1.30;;;;;;;8.94;76.90;93293.00;4161668;28;20124;-53
2022/11/21 05:53:06;;;;;;;3.38;1.35;;;;;;;8.57;77.39;93314.84;4170645;28;20052;-53
2022/11/21 05:55:08;;;;;;;2.45;1.60;;;;;;;8.12;78.37;93321.81;4176856;28;20160;-51
2022/11/21 05:57:09;;;;;;;2.97;1.60;;;;;;;8.10;78.36;93323.78;4161391;28;20049;-52
2022/11/21 05:59:11;;;;;;;2.50;1.38;;;;;;;7.86;78.40;93374.38;4161503;28;20106;-55
2022/11/21 06:01:14;;;;;;;2.22;1.45;;;;;;;7.58;79.89;93359.25;4161401;28;20041;-51
2022/11/21 06:03:29;;;;;;;1.58;1.00;;;;;;;7.47;80.11;93331.81;4161295;28;20100;-54
2022/11/21 06:05:30;;;;;;;1.80;0.80;;;;;;;7.25;80.28;93350.81;4168689;28;20232;-52
2022/11/21 06:07:32;;;;;;;1.50;0.90;;;;;;;6.98;81.10;93366.75;4161703;28;20705;-54
2022/11/21 06:09:34;;;;;;;1.70;1.00;;;;;;;7.13;81.63;93358.22;4157673;28;20388;-55
2022/11/21 06:11:35;;;;;;;3.05;1.20;;;;;;;6.95;81.51;93359.28;4171942;28;20037;-51
2022/11/21 06:13:37;;;;;;;4.28;1.35;;;;;;;6.73;82.08;93399.03;4158511;28;20494;-53
2022/11/21 06:15:39;;;;;;;2.45;1.40;;;;;;;6.67;82.45;93368.50;4152929;28;20057;-55
2022/11/21 06:17:41;;;;;;;4.15;1.60;;;;;;;6.64;82.50;93381.84;4166220;28;20056;-53
2022/11/21 06:19:42;;;;;;;4.00;1.40;;;;;;;6.80;82.53;93384.41;4172212;28;20053;-52
2022/11/21 06:21:44;;;;;;;3.13;1.50;;;;;;;6.86;80.88;93385.50;4165282;28;20429;-52
2022/11/21 06:23:46;;;;;;;2.58;1.50;;;;;;;6.61;81.44;93380.41;4165624;28;20136;-52
2022/11/21 06:25:55;;;;;;;4.03;1.77;;;;;;;6.59;81.99;93391.94;4167560;28;20514;-55
2022/11/21 06:27:59;;;;;;;4.63;2.20;;;;;;;6.47;82.08;93391.47;4158057;28;20081;-55
2022/11/21 06:30:00;;;;;;;3.50;2.10;;;;;;;6.28;82.90;93392.66;4151542;28;20092;-56
2022/11/21 06:32:02;;;;;;;4.43;1.98;;;;;;;6.33;82.23;93396.38;4169718;28;20076;-56
2022/11/21 06:34:04;;;;;;;3.55;2.30;;;;;;;6.37;82.16;93404.69;4175100;28;20064;-54
2022/11/21 06:36:13;;;;;;;4.70;2.20;;;;;;;6.28;82.40;93408.25;4171837;28;20076;-53
2022/11/21 06:38:17;;;;;;;3.97;1.77;;;;;;;6.31;82.06;93415.75;4159827;28;20654;-54
2022/11/21 06:40:19;;;;;;;3.88;1.90;;;;;;;6.26;82.50;93407.59;4158269;28;20136;-53
2022/11/21 06:42:20;;;;;;;2.30;1.50;;;;;;;6.12;82.62;93415.09;4155859;28;20122;-54
2022/11/21 06:44:22;;;;;;;2.40;1.48;;;;;;;6.23;83.25;93418.34;4177286;28;20059;-53
2022/11/21 06:46:23;;;;;;;2.05;1.33;;;;;;;6.06;83.12;93431.34;4177317;28;20080;-51
2022/11/21 06:48:25;;;;;;;2.17;1.38;;;;;;;5.82;84.75;93439.09;4154112;28;20440;-51
2022/11/21 06:50:28;;;;;;;2.70;1.52;;;;;;;5.79;85.53;93431.66;4177635;28;20076;-57
2022/11/21 06:52:34;;;;;;;2.42;1.70;;;;;;;5.75;85.30;93470.94;4166300;28;20045;-56
2022/11/21 06:54:35;;;;;;;3.80;2.17;;;;;;;5.74;85.03;93465.88;4160926;28;20099;-54
2022/11/21 06:56:37;;;;;;;3.38;2.10;;;;;;;5.56;85.38;93462.63;4164554;28;20127;-52
2022/11/21 06:58:39;;;;;;;3.00;1.80;;;;;;;5.53;85.39;93485.34;4162352;28;20143;-53
2022/11/21 07:00:41;;;;;;;5.15;2.38;;;;;;;5.41;85.88;93498.78;4155628;28;20050;-53
2022/11/21 07:02:42;;;;;;;4.03;2.10;;;;;;;5.31;86.52;93494.53;4160623;28;20144;-51
2022/11/21 07:04:44;;;;;;;3.35;2.03;;;;;;;5.22;87.20;93503.22;4160927;28;20050;-56
2022/11/21 07:06:46;;;;;;;4.45;3.08;;;;;;;5.20;87.59;93512.97;4161023;28;20092;-52
2022/11/21 07:08:52;;;;;;;6.18;4.55;;;;;;;5.26;87.51;93530.50;4158902;28;20046;-56
2022/11/21 07:11:13;;;;;;;8.10;6.00;;;;;;;5.19;88.01;93523.53;4170394;28;20402;-54
2022/11/21 07:13:31;;;;;;;6.65;2.88;;;;;;;5.02;88.02;93526.03;4172451;28;20049;-55
2022/11/21 07:15:33;;;;;;;6.30;3.90;;;;;;;5.17;89.17;93534.06;4144313;28;20116;-54
2022/11/21 07:17:34;;;;;;;6.45;2.70;;;;;;;4.99;88.78;93533.28;4151491;28;20107;-56
2022/11/21 07:19:36;;;;;;;5.78;2.75;;;;;;;5.00;89.33;93545.31;4160640;28;20441;-55
2022/11/21 07:21:42;;;;;;;5.68;2.47;;;;;;;5.05;88.53;93538.69;4151126;28;20160;-51
2022/11/21 07:23:43;;;;;;;4.78;2.67;;;;;;;4.85;89.11;93553.66;4168816;28;20137;-51
2022/11/21 07:25:45;;;;;;;5.30;2.65;;;;;;;5.01;88.74;93549.53;4170522;28;20136;-54
2022/11/21 07:27:46;;;;;;;6.88;4.00;;;;;;;5.15;88.43;93556.75;4175262;28;20053;-55
2022/11/21 07:29:48;;;;;;;5.72;3.95;;;;;;;5.00;88.14;93555.69;4165282;28;20063;-54
2022/11/21 07:31:50;;;;;;;6.82;3.28;;;;;;;5.19;88.05;93550.28;4176985;28;20076;-56
2022/11/21 07:33:51;;;;;;;5.45;3.13;;;;;;;5.33;87.77;93586.06;4177220;28;20585;-57
2022/11/21 07:35:57;;;;;;;3.75;2.80;;;;;;;5.36;86.57;93571.97;4174737;28;20079;-55
2022/11/21 07:37:59;;;;;;;4.47;2.90;;;;;;;5.43;85.97;93587.75;4150197;28;20080;-55
2022/11/21 07:40:01;;;;;;;4.72;2.90;;;;;;;5.61;86.08;93595.44;4157279;28;20054;-53
2022/11/21 07:42:02;;;;;;;5.72;3.08;;;;;;;5.30;85.55;93601.13;4172620;28;20057;-53
2022/11/21 07:44:04;;;;;;;3.13;2.30;;;;;;;5.21;85.52;93604.66;4169345;28;20719;-53
2022/11/21 07:46:06;;;;;;;3.97;2.70;;;;;;;5.29;85.88;93589.94;4168791;28;20054;-56
2022/11/21 07:48:08;;;;;;;7.13;3.47;;;;;;;5.40;85.18;93619.19;4175842;28;20052;-55
2022/11/21 07:50:10;;;;;;;7.07;2.83;;;;;;;5.17;85.17;93604.16;4180049;28;20060;-53
2022/11/21 07:52:12;;;;;;;5.07;3.10;;;;;;;5.37;85.81;93609.13;4172883;28;20463;-57
2022/11/21 07:54:14;;;;;;;5.07;3.50;;;;;;;5.40;84.01;93612.25;4151494;28;20056;-56
2022/11/21 07:56:15;;;;;;;4.80;3.28;;;;;;;5.07;84.40;93616.41;4147393;28;20057;-53
2022/11/21 07:58:17;;;;;;;4.03;2.70;;;;;;;5.07;84.94;93626.78;4155036;28;20041;-54
2022/11/21 08:00:19;;;;;;;5.32;3.30;;;;;;;5.09;85.47;93617.06;4154982;28;20053;-55
2022/11/21 08:02:26;;;;;;;4.43;3.00;;;;;;;5.14;84.16;93625.22;4162630;28;20700;-53
2022/11/21 08:04:27;;;;;;;5.40;3.70;;;;;;;5.24;83.89;93632.91;4163326;28;20182;-53
2022/11/21 08:06:29;;;;;;;4.03;3.10;;;;;;;5.26;84.16;93634.38;4153566;28;20117;-54
2022/11/21 08:08:31;;;;;;;7.25;4.40;;;;;;;5.28;83.80;93636.84;4158772;28;20049;-58
2022/11/21 08:10:35;;;;;;;10.93;7.28;;;;;;;5.44;83.36;93630.91;4150611;28;20054;-54
2022/11/21 08:12:37;;;;;;;17.05;11.98;;;;;;;5.44;83.37;93647.34;4162025;28;20080;-54
2022/11/21 08:14:39;;;;;;;4.68;3.95;;;;;;;5.39;83.24;93652.16;4150675;28;20139;-57
2022/11/21 08:16:40;;;;;;;9.13;6.55;;;;;;;5.13;84.34;93646.97;4175649;28;20196;-53
2022/11/21 08:18:42;;;;;;;8.43;6.65;;;;;;;5.28;83.56;93642.03;4174394;28;20515;-53
2022/11/21 08:20:44;;;;;;;21.00;7.78;;;;;;;5.24;84.19;93653.69;4163042;28;20098;-51
2022/11/21 08:22:46;;;;;;;17.48;7.75;;;;;;;5.32;83.59;93659.75;4161944;28;20041;-55
2022/11/21 08:24:47;;;;;;;6.43;3.88;;;;;;;5.52;82.42;93669.94;4177488;28;20401;-55
2022/11/21 08:26:49;;;;;;;6.90;3.50;;;;;;;5.27;81.91;93667.19;4173065;28;20500;-53
2022/11/21 08:28:51;;;;;;;10.00;5.82;;;;;;;5.34;82.47;93670.00;4163541;28;20151;-55
2022/11/21 08:31:03;;;;;;;6.13;3.85;;;;;;;5.17;82.06;93670.84;4162890;28;20057;-56
2022/11/21 08:33:05;;;;;;;7.68;4.10;;;;;;;5.27;82.08;93667.19;4162642;28;20206;-52
2022/11/21 08:35:07;;;;;;;9.25;4.88;;;;;;;5.22;82.46;93666.81;4169693;28;20061;-56
2022/11/21 08:37:09;;;;;;;6.65;3.03;;;;;;;5.32;81.35;93690.91;4175332;28;20056;-55
2022/11/21 08:39:10;;;;;;;4.10;2.30;;;;;;;5.15;81.29;93678.78;4167556;28;20052;-55
2022/11/21 08:43:32;;;;;;;6.05;3.38;;;;;;;5.16;81.42;93680.41;4164534;28;20053;-56
2022/11/21 08:45:35;;;;;;;7.20;3.70;;;;;;;5.29;81.66;93673.03;4179558;28;20596;-57
2022/11/21 08:47:37;;;;;;;4.65;3.05;;;;;;;5.30;81.54;93672.06;4169109;28;20103;-52
2022/11/21 08:49:39;;;;;;;4.70;3.30;;;;;;;5.26;81.84;93675.94;4162785;28;20119;-56
2022/11/21 08:51:40;;;;;;;5.45;2.90;;;;;;;5.25;81.56;93694.28;4159195;28;20057;-55
2022/11/21 08:53:43;;;;;;;5.72;3.22;;;;;;;5.14;83.02;93671.94;4150949;28;20417;-56
2022/11/21 08:55:44;;;;;;;7.03;3.80;;;;;;;5.20;82.42;93676.53;4161392;28;20045;-53
2022/11/21 08:57:46;;;;;;;7.60;3.97;;;;;;;5.39;82.28;93675.53;4161465;28;20413;-54
2022/11/21 08:59:47;;;;;;;4.82;3.33;;;;;;;5.42;81.46;93672.66;4164302;28;20485;-52
2022/11/21 09:01:49;;;;;;;7.15;4.05;;;;;;;5.65;81.52;93674.72;4166763;28;20143;-55
2022/11/21 09:03:51;;;;;;;5.30;3.40;;;;;;;5.61;80.38;93674.19;4166184;28;20433;-54
2022/11/21 09:05:55;;;;;;;4.32;2.70;;;;;;;5.57;80.03;93677.25;4153176;28;20057;-52
2022/11/21 09:07:57;;;;;;;3.78;2.38;;;;;;;5.47;80.26;93679.97;4161355;28;20046;-53
2022/11/21 09:09:59;;;;;;;2.97;2.25;;;;;;;5.47;81.19;93679.97;4162958;28;20195;-57
2022/11/21 09:12:01;;;;;;;4.90;2.72;;;;;;;5.69;80.71;93686.44;4165206;28;20124;-53
2022/11/21 09:18:43;;;;;;;3.38;2.67;;;;;;;5.53;80.83;93695.75;4158491;28;20613;-52
2022/11/21 09:20:45;;;;;;;4.45;2.97;;;;;;;5.52;81.90;93701.91;4149769;28;20480;-51
2022/11/21 09:22:46;;;;;;;5.22;3.17;;;;;;;5.56;80.87;93699.81;4165137;28;20045;-55
2022/11/21 09:24:48;;;;;;;5.80;3.25;;;;;;;5.74;81.47;93697.16;4163855;28;20053;-54
2022/11/21 09:26:50;;;;;;;3.63;2.28;;;;;;;5.53;81.39;93692.34;4171594;28;20493;-54
2022/11/21 09:28:51;;;;;;;4.43;2.70;;;;;;;5.68;80.92;93693.41;4175958;28;20095;-52
2022/11/21 09:30:53;;;;;;;4.20;2.80;;;;;;;5.65;81.18;93695.50;4175609;28;20060;-57
2022/11/21 09:33:03;;;;;;;3.00;2.05;;;;;;;5.45;82.18;93700.09;4163225;28;20128;-55
2022/11/21 09:35:05;;;;;;;3.80;2.15;;;;;;;5.39;82.58;93695.50;4170255;28;20056;-54
2022/11/21 09:37:07;;;;;;;3.30;2.38;;;;;;;5.48;82.78;93702.38;4170143;28;20052;-55
2022/11/21 09:39:08;;;;;;;5.40;3.80;;;;;;;5.27;83.49;93713.94;4152889;28;20123;-53
2022/11/21 09:44:08;;;;;;;4.57;3.10;;;;;;;5.16;82.12;93716.75;4162274;28;20041;-55
2022/11/21 09:46:14;;;;;;;3.60;2.83;;;;;;;5.15;82.31;93702.16;4153124;28;20062;-56
2022/11/21 09:48:35;;;;;;;4.80;3.28;;;;;;;5.05;82.65;93709.19;4157684;28;20474;-55
2022/11/21 09:50:43;;;;;;;7.70;3.65;;;;;;;5.03;82.73;93711.13;4160009;28;20152;-56
2022/11/21 09:53:05;;;;;;;4.53;3.28;;;;;;;5.03;83.16;93706.75;4159046;28;20045;-51
2022/11/21 09:55:26;;;;;;;5.72;3.63;;;;;;;4.80;83.72;93721.97;4166290;28;20119;-53